Time;durP1;ratioP1;P1;durP2;ratioP2;P2;SDS_P1;SDS_P2;PMS_P1;PMS_P2;Temp;Humidity;BMP_temperature;BMP_pressure;BME280_temperature;BME280_humidity;BME280_pressure;Samples;Min_cycle;Max_cycle;Signal;HPM_P1;HPM_P2
2023/02/09 00:03:18;;;;;;;128.50;63.00;;;;;;;-6.42;82.47;101185.81;220906;1282;22707;-75
2023/02/09 00:08:20;;;;;;;134.50;62.00;;;;;;;-6.43;82.59;101184.45;220956;1282;24401;-76
2023/02/09 00:13:32;;;;;;;122.50;58.50;;;;;;;-6.45;82.61;101183.45;220884;1282;22667;-75
2023/02/09 00:18:34;;;;;;;112.50;50.60;;;;;;;-6.49;82.57;101172.71;220915;1282;22624;-76
2023/02/09 00:23:38;;;;;;;112.20;53.60;;;;;;;-6.52;82.68;101164.68;220808;1282;25862;-75
2023/02/09 00:28:40;;;;;;;109.70;52.50;;;;;;;-6.52;82.71;101166.41;220875;1282;24200;-75
2023/02/09 00:33:42;;;;;;;122.30;56.60;;;;;;;-6.52;82.74;101161.61;220734;1277;25551;-75
2023/02/09 00:38:44;;;;;;;153.60;73.80;;;;;;;-6.53;82.99;101152.87;220821;1280;22827;-75
2023/02/09 00:43:46;;;;;;;164.00;81.70;;;;;;;-6.52;83.17;101149.61;220943;1279;22811;-75
2023/02/09 00:48:53;;;;;;;163.00;74.40;;;;;;;-6.52;83.31;101137.43;220818;1283;22631;-76
2023/02/09 00:53:55;;;;;;;190.70;96.30;;;;;;;-6.54;83.35;101129.76;220778;1280;25358;-75
2023/02/09 00:58:58;;;;;;;229.00;106.20;;;;;;;-6.55;83.39;101122.07;220842;1280;22851;-75
2023/02/09 01:04:00;;;;;;;221.70;103.50;;;;;;;-6.55;83.50;101108.88;220585;1282;26030;-74
2023/02/09 01:09:02;;;;;;;162.50;79.10;;;;;;;-6.55;83.72;101105.11;220966;1279;25215;-76
2023/02/09 01:14:05;;;;;;;155.70;73.20;;;;;;;-6.53;83.73;101105.41;220968;1282;22641;-74
2023/02/09 01:19:10;;;;;;;138.30;65.90;;;;;;;-6.52;83.92;101104.52;220793;1263;26665;-74
2023/02/09 01:24:14;;;;;;;130.30;65.00;;;;;;;-6.51;83.88;101100.23;220511;1263;24163;-75
2023/02/09 01:29:19;;;;;;;141.50;65.60;;;;;;;-6.51;84.02;101096.80;220440;1282;24245;-74
2023/02/09 01:34:22;;;;;;;170.30;81.50;;;;;;;-6.50;84.04;101091.30;220808;1282;22551;-75
2023/02/09 01:39:24;;;;;;;163.20;77.00;;;;;;;-6.51;83.99;101087.20;220832;1280;22653;-75
2023/02/09 01:44:32;;;;;;;153.40;70.80;;;;;;;-6.56;83.74;101079.75;220710;1279;25640;-75
2023/02/09 01:49:43;;;;;;;156.70;77.70;;;;;;;-6.56;83.73;101072.39;220951;1280;22818;-75
2023/02/09 01:55:01;;;;;;;173.90;80.00;;;;;;;-6.57;83.64;101068.12;220849;1282;23135;-75
2023/02/09 02:00:12;;;;;;;167.50;79.80;;;;;;;-6.59;83.64;101066.27;220913;1279;25341;-75
2023/02/09 02:05:22;;;;;;;163.40;77.40;;;;;;;-6.61;83.94;101065.45;220792;1281;22646;-75
2023/02/09 02:10:28;;;;;;;161.20;77.90;;;;;;;-6.62;83.91;101068.02;220835;1282;22537;-75
2023/02/09 02:16:04;;;;;;;153.40;75.40;;;;;;;-6.67;83.70;101061.08;220992;1279;25629;-75
2023/02/09 02:21:18;;;;;;;148.90;72.00;;;;;;;-6.75;83.38;101067.89;220944;1260;22917;-75
2023/02/09 02:26:33;;;;;;;145.70;69.40;;;;;;;-6.81;83.28;101071.56;220898;1279;22726;-76
2023/02/09 02:31:42;;;;;;;142.10;69.00;;;;;;;-6.90;83.45;101068.45;220842;1280;23531;-75
2023/02/09 02:37:09;;;;;;;135.30;64.20;;;;;;;-6.97;83.10;101065.11;220907;1267;24147;-76
2023/02/09 02:47:52;;;;;;;154.40;73.60;;;;;;;-7.03;83.61;101058.20;220811;1282;22651;-75
2023/02/09 02:52:58;;;;;;;153.10;75.60;;;;;;;-7.06;83.55;101056.52;220873;1282;25626;-74
2023/02/09 02:58:08;;;;;;;155.30;74.90;;;;;;;-7.10;83.43;101048.00;220861;1282;25429;-75
2023/02/09 03:03:32;;;;;;;150.70;73.30;;;;;;;-7.14;83.39;101043.63;220943;1280;25382;-74
2023/02/09 03:08:51;;;;;;;124.90;63.20;;;;;;;-7.18;83.44;101040.60;220673;1282;23402;-75
2023/02/09 03:14:05;;;;;;;152.10;77.30;;;;;;;-7.22;83.45;101043.55;220824;1278;22537;-76
2023/02/09 03:19:24;;;;;;;132.50;67.60;;;;;;;-7.24;83.53;101039.13;220813;1275;25505;-75
2023/02/09 03:24:38;;;;;;;136.60;69.30;;;;;;;-7.28;83.47;101032.00;220931;1276;22545;-76
2023/02/09 03:29:44;;;;;;;134.00;62.80;;;;;;;-7.32;83.39;101027.60;220936;1280;22648;-75
2023/02/09 03:34:48;;;;;;;150.90;73.10;;;;;;;-7.35;83.47;101024.39;220980;1279;23527;-74
2023/02/09 03:39:50;;;;;;;139.20;67.90;;;;;;;-7.38;83.55;101016.89;220894;1281;23948;-75
2023/02/09 03:44:52;;;;;;;154.90;77.70;;;;;;;-7.39;83.82;101009.38;220969;1259;23177;-74
2023/02/09 03:49:54;;;;;;;149.90;78.90;;;;;;;-7.39;83.71;101005.45;220996;1278;24255;-76
2023/02/09 03:54:57;;;;;;;174.40;86.60;;;;;;;-7.39;83.94;100997.91;221010;1279;24362;-74
2023/02/09 04:00:00;;;;;;;166.70;81.50;;;;;;;-7.38;84.08;100993.79;220874;1280;24399;-75
2023/02/09 04:05:12;;;;;;;164.20;83.10;;;;;;;-7.36;84.30;100994.63;221001;1278;26389;-75
2023/02/09 04:10:15;;;;;;;153.50;77.70;;;;;;;-7.38;83.97;100996.19;220983;1260;23542;-75
2023/02/09 04:15:17;;;;;;;155.80;71.30;;;;;;;-7.45;83.68;100999.55;220849;1280;22707;-76
2023/02/09 04:20:19;;;;;;;145.80;73.60;;;;;;;-7.55;83.49;100999.65;220805;1275;22646;-75
2023/02/09 04:25:21;;;;;;;155.90;74.80;;;;;;;-7.61;83.61;100994.80;220899;1261;23652;-74
2023/02/09 04:30:26;;;;;;;171.50;82.30;;;;;;;-7.65;83.61;100995.17;220843;1278;22830;-74
2023/02/09 04:35:29;;;;;;;164.90;80.00;;;;;;;-7.68;83.72;100993.67;220901;1280;22715;-75
2023/02/09 04:40:31;;;;;;;173.80;87.10;;;;;;;-7.73;83.71;100991.18;220690;1282;22653;-75
2023/02/09 04:45:33;;;;;;;161.80;81.00;;;;;;;-7.77;83.55;100985.77;220856;1280;22759;-75
2023/02/09 04:50:35;;;;;;;159.30;76.60;;;;;;;-7.83;83.63;100985.82;220816;1278;25620;-75
2023/02/09 04:55:41;;;;;;;171.30;80.20;;;;;;;-7.88;83.60;100988.28;220895;1280;24297;-75
2023/02/09 05:00:46;;;;;;;161.40;77.80;;;;;;;-7.89;83.79;100985.41;220906;1282;25438;-75
2023/02/09 05:05:49;;;;;;;166.00;81.20;;;;;;;-7.89;83.86;100982.49;220924;1282;22630;-75
2023/02/09 05:10:52;;;;;;;158.60;77.20;;;;;;;-7.89;83.92;100980.95;220755;1259;22766;-75
2023/02/09 05:15:55;;;;;;;162.10;79.60;;;;;;;-7.89;84.21;100976.51;220668;1282;22755;-75
2023/02/09 05:20:57;;;;;;;165.70;79.70;;;;;;;-7.89;84.16;100968.63;220851;1278;22597;-74
2023/02/09 05:25:59;;;;;;;161.40;80.10;;;;;;;-7.87;84.28;100962.48;220889;1278;23092;-75
2023/02/09 05:31:02;;;;;;;154.90;75.80;;;;;;;-7.87;84.38;100958.52;220916;1282;22753;-74
2023/02/09 05:36:08;;;;;;;149.20;72.40;;;;;;;-7.86;84.25;100960.88;220836;1275;24284;-74
2023/02/09 05:42:14;;;;;;;156.60;74.70;;;;;;;-7.83;84.52;100961.20;220948;1282;21872;-75
2023/02/09 05:46:37;;;;;;;150.90;73.20;;;;;;;-7.77;84.53;100964.05;220857;1267;25100;-74
2023/02/09 05:51:39;;;;;;;133.80;67.80;;;;;;;-7.69;84.56;100971.12;220924;1275;22602;-76
2023/02/09 05:56:42;;;;;;;143.90;71.00;;;;;;;-7.61;84.63;100971.71;220907;1282;24268;-76
2023/02/09 06:01:45;;;;;;;122.80;58.20;;;;;;;-7.55;84.62;100972.63;221008;1278;22612;-74
2023/02/09 06:06:47;;;;;;;107.70;53.00;;;;;;;-7.50;84.53;100965.73;220807;1277;23583;-74
2023/02/09 06:11:50;;;;;;;103.90;49.40;;;;;;;-7.43;84.55;100955.70;220949;1259;26241;-74
2023/02/09 06:16:52;;;;;;;122.40;58.40;;;;;;;-7.33;84.53;100947.52;220636;1282;22701;-74
2023/02/09 06:21:54;;;;;;;110.90;52.30;;;;;;;-7.27;84.46;100948.97;220905;1281;25589;-74
2023/02/09 06:26:56;;;;;;;121.30;54.20;;;;;;;-7.19;84.52;100946.27;220949;1278;23504;-76
2023/02/09 06:31:58;;;;;;;116.40;57.60;;;;;;;-7.14;84.27;100943.81;220860;1281;22682;-75
2023/02/09 06:37:01;;;;;;;122.00;60.50;;;;;;;-7.09;84.07;100949.36;220959;1282;22670;-75
2023/02/09 06:42:03;;;;;;;117.30;57.90;;;;;;;-7.02;84.23;100942.08;220986;1278;22683;-75
2023/02/09 06:47:05;;;;;;;133.00;62.30;;;;;;;-6.94;84.26;100937.31;220953;1267;26042;-74
2023/02/09 06:52:07;;;;;;;144.20;72.00;;;;;;;-6.86;84.00;100939.77;221039;1278;25615;-75
2023/02/09 06:57:09;;;;;;;155.80;71.60;;;;;;;-6.79;83.94;100940.48;221093;1275;24046;-75
2023/02/09 07:02:11;;;;;;;129.60;61.80;;;;;;;-6.68;83.98;100939.27;221151;1259;23403;-75
2023/02/09 07:07:14;;;;;;;128.40;63.20;;;;;;;-6.54;84.09;100941.27;221692;1262;22653;-76
2023/02/09 07:12:16;;;;;;;132.80;64.20;;;;;;;-6.37;84.01;100936.99;221178;1267;140252;-75
2023/02/09 07:17:21;;;;;;;126.60;61.00;;;;;;;-6.16;84.17;100942.93;221361;1262;22571;-74
2023/02/09 07:22:24;;;;;;;117.10;58.70;;;;;;;-5.83;84.54;100942.08;221351;1262;25645;-74
2023/02/09 07:27:26;;;;;;;108.10;54.70;;;;;;;-5.55;84.32;100949.36;221150;1268;139687;-74
2023/02/09 07:32:29;;;;;;;107.40;53.50;;;;;;;-5.34;84.07;100949.74;221359;1263;139854;-74
2023/02/09 07:37:31;;;;;;;99.00;50.20;;;;;;;-5.11;84.00;100951.80;221390;1261;140100;-74
2023/02/09 07:42:33;;;;;;;92.90;46.60;;;;;;;-4.83;83.69;100949.73;221169;1269;139639;-75
2023/02/09 07:47:37;;;;;;;86.50;44.90;;;;;;;-4.34;84.08;100941.23;221785;1262;139686;-75
2023/02/09 07:52:40;;;;;;;93.20;45.60;;;;;;;-4.03;82.82;100941.10;221768;1267;23981;-74
2023/02/09 07:57:42;;;;;;;83.20;44.10;;;;;;;-3.90;82.23;100935.71;221704;1274;139803;-75
2023/02/09 08:02:45;;;;;;;70.60;35.40;;;;;;;-3.83;81.72;100939.14;221558;1262;139959;-75
2023/02/09 08:07:47;;;;;;;68.20;35.90;;;;;;;-3.73;81.57;100937.47;221743;1270;140357;-74
2023/02/09 08:12:59;;;;;;;56.00;29.40;;;;;;;-3.56;81.73;100935.07;221507;1259;139938;-74
2023/02/09 08:22:54;;;;;;;49.40;26.20;;;;;;;-3.15;81.14;100922.27;216133;1302;544768;-74
2023/02/09 08:27:56;;;;;;;37.70;21.40;;;;;;;-2.99;81.13;100920.86;219854;1275;138489;-71
2023/02/09 08:32:58;;;;;;;41.30;22.10;;;;;;;-2.78;80.51;100916.23;221436;1267;163203;-72
2023/02/09 08:38:07;;;;;;;37.50;19.80;;;;;;;-2.58;80.16;100905.14;222131;1260;139099;-75
2023/02/09 08:43:10;;;;;;;37.60;19.40;;;;;;;-2.35;79.70;100905.23;222118;1270;138184;-74
2023/02/09 08:48:12;;;;;;;28.30;16.90;;;;;;;-2.16;79.29;100908.50;222230;1264;138885;-74
2023/02/09 08:53:14;;;;;;;30.80;17.80;;;;;;;-1.96;78.96;100908.66;222081;1264;25441;-76
2023/02/09 08:58:17;;;;;;;30.30;17.40;;;;;;;-1.77;78.56;100904.29;221767;1270;137829;-75
2023/02/09 09:03:26;;;;;;;29.20;15.80;;;;;;;-1.60;77.88;100909.53;221852;1264;138690;-76
2023/02/09 09:08:30;;;;;;;35.00;17.40;;;;;;;-1.46;77.20;100901.55;221878;1268;138108;-74
2023/02/09 09:13:32;;;;;;;29.90;15.20;;;;;;;-1.32;76.67;100899.11;221924;1264;138347;-75
2023/02/09 09:18:36;;;;;;;28.10;16.00;;;;;;;-1.19;76.10;100899.60;221967;1267;138735;-75
2023/02/09 09:23:39;;;;;;;31.30;16.90;;;;;;;-1.06;75.59;100899.96;222005;1273;138763;-75
2023/02/09 09:29:07;;;;;;;;;;;;;;;;;;;;;
2023/02/09 09:34:20;;;;;;;31.30;16.00;;;;;;;-0.74;75.43;100893.45;221931;1276;137856;-76
2023/02/09 09:39:24;;;;;;;32.90;15.40;;;;;;;-0.55;75.31;100897.65;221893;1270;138401;-76
2023/02/09 09:45:20;;;;;;;33.40;16.40;;;;;;;-0.39;75.00;100902.48;221428;1273;138405;-77
2023/02/09 09:50:37;;;;;;;27.90;15.20;;;;;;;-0.21;74.53;100902.59;221542;1262;138636;-76
2023/02/09 09:55:40;;;;;;;39.20;14.40;;;;;;;-0.11;73.20;100901.23;221448;1267;139171;-77
2023/02/09 10:00:43;;;;;;;22.10;13.90;;;;;;;-0.00;72.46;100897.13;221662;1274;138458;-77
2023/02/09 10:06:00;;;;;;;31.60;15.00;;;;;;;0.12;72.56;100895.36;221706;1272;138537;-77
2023/02/09 10:11:07;;;;;;;23.60;11.80;;;;;;;0.28;72.28;100892.71;221920;1272;24457;-75
2023/02/09 10:16:17;;;;;;;19.60;11.50;;;;;;;0.45;71.83;100887.58;222037;1261;137764;-77
2023/02/09 10:21:22;;;;;;;21.60;11.20;;;;;;;0.60;71.84;100875.09;222844;1276;138505;-77
2023/02/09 10:26:31;;;;;;;16.70;10.90;;;;;;;0.76;71.09;100869.80;221820;1275;138265;-78
2023/02/09 10:31:54;;;;;;;20.30;10.40;;;;;;;0.92;71.02;100871.42;222169;1265;138883;-77
2023/02/09 10:37:20;;;;;;;19.70;10.00;;;;;;;1.04;69.77;100871.89;222272;1263;138284;-78
2023/02/09 10:42:39;;;;;;;15.90;9.40;;;;;;;1.22;70.69;100867.17;222309;1262;137889;-78
2023/02/09 10:47:55;;;;;;;19.50;11.80;;;;;;;1.39;69.70;100866.48;221799;1270;137963;-79
2023/02/09 10:53:00;;;;;;;21.00;11.00;;;;;;;1.54;69.10;100860.65;222100;1275;22587;-80
2023/02/09 10:58:26;;;;;;;20.90;10.20;;;;;;;1.69;68.55;100857.60;222467;1270;137664;-78
2023/02/09 11:03:29;;;;;;;16.90;8.70;;;;;;;1.81;67.54;100839.45;222326;1270;137596;-77
2023/02/09 11:08:58;;;;;;;20.70;10.90;;;;;;;1.86;66.52;100827.54;222119;1257;138388;-77
2023/02/09 11:14:01;;;;;;;12.80;7.40;;;;;;;1.99;66.89;100813.08;222526;1257;138276;-77
2023/02/09 11:19:17;;;;;;;18.30;9.00;;;;;;;2.10;66.01;100804.11;221706;1275;137397;-77
2023/02/09 11:24:38;;;;;;;11.30;6.60;;;;;;;2.24;65.94;100785.42;222045;1267;136708;-76
2023/02/09 11:29:59;;;;;;;15.80;7.50;;;;;;;2.35;64.27;100779.24;221747;1270;137628;-76
2023/02/09 11:35:11;;;;;;;17.40;7.20;;;;;;;2.39;62.08;100773.45;221840;1256;25948;-76
2023/02/09 11:40:27;;;;;;;13.90;6.70;;;;;;;2.39;61.57;100776.40;222151;1257;137373;-77
2023/02/09 11:45:49;;;;;;;10.20;6.40;;;;;;;2.44;61.33;100771.62;221806;1267;137199;-77
2023/02/09 11:51:01;;;;;;;10.60;6.80;;;;;;;2.49;61.21;100757.92;221980;1269;137614;-78
2023/02/09 11:56:07;;;;;;;10.90;6.60;;;;;;;2.55;60.51;100749.61;222088;1270;137629;-78
2023/02/09 12:01:21;;;;;;;12.50;6.60;;;;;;;2.63;61.15;100747.59;221978;1256;137410;-79
2023/02/09 12:06:24;;;;;;;11.50;6.90;;;;;;;2.79;61.47;100752.02;222046;1270;137658;-78
2023/02/09 12:11:49;;;;;;;12.70;6.70;;;;;;;2.92;61.37;100748.27;221941;1259;138592;-77
2023/02/09 12:17:50;;;;;;;12.60;6.90;;;;;;;3.05;61.21;100741.05;222393;1272;23778;-78
2023/02/09 12:23:38;;;;;;;10.40;6.50;;;;;;;3.15;60.10;100732.60;222094;1262;22579;-79
2023/02/09 12:28:44;;;;;;;9.10;5.90;;;;;;;3.19;58.56;100718.64;222209;1263;23015;-77
2023/02/09 12:33:58;;;;;;;8.90;5.90;;;;;;;3.09;57.56;100707.20;222314;1254;136941;-77
2023/02/09 12:39:24;;;;;;;10.70;6.80;;;;;;;3.05;57.71;100701.34;222247;1262;137116;-77
2023/02/09 12:44:29;;;;;;;8.80;5.80;;;;;;;3.04;57.99;100697.41;222339;1266;137673;-76
2023/02/09 12:49:32;;;;;;;10.50;6.10;;;;;;;3.05;57.50;100690.05;222229;1254;137172;-76
2023/02/09 12:54:44;;;;;;;11.10;6.40;;;;;;;3.06;57.29;100692.77;221918;1267;137413;-75
2023/02/09 12:59:51;;;;;;;9.50;6.30;;;;;;;3.06;57.53;100684.41;222081;1262;138233;-74
2023/02/09 13:05:01;;;;;;;9.50;6.50;;;;;;;3.11;57.62;100685.69;222245;1262;23086;-75
2023/02/09 13:10:13;;;;;;;9.50;5.80;;;;;;;3.11;57.17;100680.45;222121;1258;137741;-75
2023/02/09 13:15:18;;;;;;;139.30;21.40;;;;;;;3.12;56.97;100674.50;222176;1259;137572;-75
2023/02/09 13:21:00;;;;;;;48.10;12.30;;;;;;;3.16;57.42;100675.95;221935;1271;138240;-75
2023/02/09 13:26:22;;;;;;;10.10;6.40;;;;;;;3.22;57.62;100674.07;222252;1256;137555;-75
2023/02/09 13:31:34;;;;;;;9.00;6.10;;;;;;;3.19;56.82;100673.34;222064;1264;137371;-74
2023/02/09 13:36:54;;;;;;;13.50;6.30;;;;;;;3.14;56.34;100668.58;222326;1276;137268;-75
2023/02/09 13:41:57;;;;;;;10.00;6.40;;;;;;;3.08;56.58;100662.89;222153;1270;137654;-74
2023/02/09 13:47:00;;;;;;;12.00;7.00;;;;;;;3.04;56.90;100662.25;222411;1270;25804;-79
2023/02/09 13:52:18;;;;;;;11.60;6.40;;;;;;;3.01;56.90;100656.86;222353;1262;137047;-78
2023/02/09 13:57:34;;;;;;;13.00;7.40;;;;;;;3.01;58.17;100651.84;221966;1260;137716;-79
2023/02/09 14:02:36;;;;;;;13.60;6.50;;;;;;;3.02;57.66;100643.96;222181;1272;137887;-79
2023/02/09 14:07:39;;;;;;;12.10;7.10;;;;;;;2.98;57.67;100636.50;222106;1258;137815;-76
2023/02/09 14:12:59;;;;;;;11.00;7.40;;;;;;;2.96;58.27;100628.67;222396;1272;137646;-77
2023/02/09 14:18:02;;;;;;;10.40;6.30;;;;;;;2.93;58.39;100626.05;222161;1265;137322;-77
2023/02/09 14:23:14;;;;;;;9.70;6.10;;;;;;;2.89;58.02;100620.91;222004;1266;22590;-75
2023/02/09 14:28:16;;;;;;;11.40;6.70;;;;;;;2.81;57.67;100617.90;222388;1264;136976;-76
2023/02/09 14:33:27;;;;;;;12.30;6.40;;;;;;;2.73;58.28;100620.65;221967;1270;137294;-77
2023/02/09 14:38:38;;;;;;;11.30;7.10;;;;;;;2.62;57.57;100618.55;222024;1270;137804;-76
2023/02/09 14:43:40;;;;;;;10.10;6.10;;;;;;;2.52;57.91;100625.58;223070;1269;137349;-77
2023/02/09 14:48:42;;;;;;;12.00;6.40;;;;;;;2.44;57.88;100623.63;224171;1262;138134;-79
2023/02/09 14:53:45;;;;;;;10.60;6.20;;;;;;;2.37;57.86;100622.84;224307;1258;136458;-77
2023/02/09 14:58:47;;;;;;;11.10;7.20;;;;;;;2.30;57.58;100617.31;226000;1264;25596;-76
2023/02/09 15:03:50;;;;;;;10.60;6.30;;;;;;;2.21;58.14;100618.38;223856;1275;22543;-77
2023/02/09 15:08:53;;;;;;;9.60;6.80;;;;;;;2.09;58.42;100617.84;223990;1272;24325;-78
2023/02/09 15:14:02;;;;;;;10.70;6.50;;;;;;;1.97;58.36;100607.78;224130;1277;22592;-78
2023/02/09 15:19:13;;;;;;;12.00;7.20;;;;;;;1.84;58.93;100601.63;223606;1278;22565;-77
2023/02/09 15:24:16;;;;;;;9.90;6.20;;;;;;;1.70;58.48;100591.64;225077;1275;22776;-76
2023/02/09 15:29:18;;;;;;;10.70;6.60;;;;;;;1.57;58.97;100579.85;225836;1275;23155;-76
2023/02/09 15:34:22;;;;;;;11.40;6.80;;;;;;;1.45;59.32;100573.44;225542;1274;22571;-77
2023/02/09 15:39:26;;;;;;;15.10;8.00;;;;;;;1.31;59.23;100577.67;226137;1275;22482;-77
2023/02/09 15:50:00;;;;;;;12.70;7.80;;;;;;;1.02;60.14;100578.08;226491;1275;22587;-77
2023/02/09 15:55:07;;;;;;;11.70;7.50;;;;;;;0.87;60.36;100568.30;226292;1277;22566;-78
2023/02/09 16:00:21;;;;;;;12.70;7.60;;;;;;;0.73;60.70;100566.98;226316;1275;22572;-77
2023/02/09 16:05:29;;;;;;;11.00;7.10;;;;;;;0.59;60.81;100572.77;226281;1271;22602;-76
2023/02/09 16:10:31;;;;;;;11.70;7.40;;;;;;;0.46;61.15;100576.21;225338;1277;24254;-77
2023/02/09 16:15:35;;;;;;;14.80;8.70;;;;;;;0.36;61.02;100578.13;225849;1278;22559;-77
2023/02/09 16:20:45;;;;;;;13.70;8.40;;;;;;;0.25;61.24;100573.83;225421;1275;24894;-77
2023/02/09 16:25:51;;;;;;;17.90;9.60;;;;;;;0.12;61.38;100572.78;224430;1277;25546;-77
2023/02/09 16:30:56;;;;;;;15.60;8.90;;;;;;;-0.02;62.07;100571.94;223603;1274;22535;-77
2023/02/09 16:36:01;;;;;;;17.00;9.90;;;;;;;-0.15;62.56;100577.09;223011;1272;22549;-77
2023/02/09 16:41:45;;;;;;;15.90;9.10;;;;;;;-0.26;62.74;100572.14;222873;1275;22590;-77
2023/02/09 16:46:34;;;;;;;16.30;9.40;;;;;;;-0.39;62.75;100577.91;221620;1277;22545;-77
2023/02/09 16:51:36;;;;;;;16.10;9.30;;;;;;;-0.49;63.55;100581.52;221518;1275;22534;-78
2023/02/09 16:56:38;;;;;;;16.10;8.90;;;;;;;-0.55;63.67;100578.35;221775;1275;22530;-76
2023/02/09 17:01:58;;;;;;;19.40;10.20;;;;;;;-0.61;63.53;100574.66;221549;1278;22655;-77
2023/02/09 17:07:01;;;;;;;19.30;9.80;;;;;;;-0.65;63.75;100570.89;221682;1278;22526;-77
2023/02/09 17:12:03;;;;;;;18.90;10.20;;;;;;;-0.66;63.65;100575.08;221777;1272;22685;-77
2023/02/09 17:17:09;;;;;;;17.80;9.30;;;;;;;-0.66;63.79;100573.55;221561;1277;22533;-77
2023/02/09 17:22:13;;;;;;;17.80;9.80;;;;;;;-0.69;63.79;100577.48;221759;1272;22523;-75
2023/02/09 17:27:15;;;;;;;16.50;9.20;;;;;;;-0.69;63.60;100575.75;221550;1278;24357;-76
2023/02/09 17:32:18;;;;;;;15.90;9.50;;;;;;;-0.71;63.44;100572.18;221695;1275;23064;-76
2023/02/09 17:37:23;;;;;;;17.80;9.00;;;;;;;-0.71;63.59;100560.43;221659;1272;22661;-75
2023/02/09 17:42:25;;;;;;;16.80;9.10;;;;;;;-0.73;63.34;100555.14;221678;1275;24105;-75
2023/02/09 17:47:28;;;;;;;30.40;16.30;;;;;;;-0.74;63.42;100557.29;221567;1275;25497;-76
2023/02/09 17:52:30;;;;;;;17.40;9.80;;;;;;;-0.79;63.48;100554.23;221664;1277;22585;-76
2023/02/09 17:57:32;;;;;;;17.40;9.40;;;;;;;-0.83;63.75;100552.53;221612;1275;22820;-76
2023/02/09 18:02:34;;;;;;;22.30;10.70;;;;;;;-0.85;63.73;100546.07;221605;1277;23674;-76
2023/02/09 18:07:36;;;;;;;19.90;10.80;;;;;;;-0.88;63.94;100537.02;221627;1277;26400;-77
2023/02/09 18:12:39;;;;;;;20.10;11.60;;;;;;;-0.90;63.99;100540.11;221556;1272;23754;-75
2023/02/09 18:17:43;;;;;;;19.80;10.40;;;;;;;-0.96;64.01;100538.30;221471;1256;22546;-76
2023/02/09 18:22:46;;;;;;;22.60;11.70;;;;;;;-1.03;64.43;100542.05;221686;1273;22743;-76
2023/02/09 18:27:50;;;;;;;19.90;10.80;;;;;;;-1.10;64.43;100535.48;221834;1278;22583;-76
2023/02/09 18:32:54;;;;;;;23.70;12.50;;;;;;;-1.13;64.61;100529.41;221469;1272;25371;-75
2023/02/09 18:37:56;;;;;;;24.20;12.50;;;;;;;-1.16;64.74;100521.58;221751;1273;22527;-76
2023/02/09 18:43:00;;;;;;;21.60;11.90;;;;;;;-1.20;64.89;100514.65;221671;1275;22536;-75
2023/02/09 18:48:03;;;;;;;19.40;10.20;;;;;;;-1.21;65.18;100518.02;221686;1278;22817;-75
2023/02/09 18:53:06;;;;;;;22.10;12.40;;;;;;;-1.21;64.98;100512.32;221690;1275;24380;-76
2023/02/09 18:58:08;;;;;;;25.50;13.00;;;;;;;-1.23;65.25;100508.26;221538;1277;24295;-74
2023/02/09 19:03:15;;;;;;;18.00;10.40;;;;;;;-1.26;65.30;100514.09;221676;1278;22539;-75
2023/02/09 19:08:17;;;;;;;22.20;11.50;;;;;;;-1.26;65.37;100513.07;221684;1275;24182;-75
2023/02/09 19:13:19;;;;;;;19.10;10.50;;;;;;;-1.27;65.47;100505.52;221730;1274;22488;-75
2023/02/09 19:18:21;;;;;;;22.20;12.60;;;;;;;-1.29;65.46;100496.23;221637;1275;25681;-75
2023/02/09 19:23:24;;;;;;;19.90;10.60;;;;;;;-1.31;65.63;100495.65;221661;1273;25512;-75
2023/02/09 19:28:26;;;;;;;20.30;10.70;;;;;;;-1.31;65.71;100491.16;221547;1277;24273;-75
2023/02/09 19:33:29;;;;;;;17.00;9.70;;;;;;;-1.31;65.79;100488.73;221583;1277;25355;-75
2023/02/09 19:38:31;;;;;;;18.20;10.30;;;;;;;-1.30;65.62;100490.06;221687;1275;25384;-75
2023/02/09 19:43:34;;;;;;;19.50;9.90;;;;;;;-1.27;65.63;100489.27;221621;1268;22485;-75
2023/02/09 19:48:39;;;;;;;19.50;11.00;;;;;;;-1.26;65.58;100496.48;221655;1259;25532;-76
2023/02/09 19:53:41;;;;;;;20.00;10.30;;;;;;;-1.29;65.25;100494.87;221599;1275;22661;-75
2023/02/09 19:58:46;;;;;;;16.90;10.00;;;;;;;-1.33;65.69;100492.47;221569;1275;25302;-74
2023/02/09 20:03:51;;;;;;;18.60;10.70;;;;;;;-1.36;65.75;100482.25;221613;1275;23789;-75
2023/02/09 20:08:55;;;;;;;18.10;9.00;;;;;;;-1.38;65.68;100470.93;221566;1277;22537;-74
2023/02/09 20:13:57;;;;;;;20.60;10.00;;;;;;;-1.40;65.80;100465.66;221654;1275;24377;-75
2023/02/09 20:19:05;;;;;;;15.70;8.30;;;;;;;-1.41;65.59;100463.45;221661;1278;24334;-74
2023/02/09 20:24:10;;;;;;;18.40;10.50;;;;;;;-1.43;65.71;100472.85;221694;1278;24239;-74
2023/02/09 20:29:15;;;;;;;20.80;12.60;;;;;;;-1.44;65.68;100470.67;221713;1275;22752;-75
2023/02/09 20:34:17;;;;;;;19.40;9.70;;;;;;;-1.45;66.00;100468.45;221624;1278;125393;-73
2023/02/09 20:39:22;;;;;;;17.30;10.10;;;;;;;-1.48;66.00;100468.63;221621;1278;22524;-74
2023/02/09 20:49:45;;;;;;;19.80;10.80;;;;;;;-1.54;65.81;100471.66;221506;1273;22555;-74
2023/02/09 20:54:47;;;;;;;15.60;9.00;;;;;;;-1.54;66.30;100475.11;221759;1278;22602;-75
2023/02/09 20:59:49;;;;;;;18.80;10.20;;;;;;;-1.56;66.26;100479.52;221656;1273;24280;-75
2023/02/09 21:04:55;;;;;;;18.60;10.60;;;;;;;-1.56;66.20;100471.58;221557;1275;22534;-75
2023/02/09 21:09:58;;;;;;;17.60;9.60;;;;;;;-1.58;66.25;100472.55;221623;1268;24203;-75
2023/02/09 21:15:00;;;;;;;18.20;9.60;;;;;;;-1.60;66.58;100460.19;221741;1276;22789;-75
2023/02/09 21:20:04;;;;;;;17.70;9.80;;;;;;;-1.61;66.27;100447.61;221689;1278;22527;-73
2023/02/09 21:25:07;;;;;;;18.00;10.20;;;;;;;-1.63;66.30;100434.58;221678;1277;26489;-74
2023/02/09 21:30:09;;;;;;;17.50;9.20;;;;;;;-1.62;66.41;100415.20;221679;1273;22538;-75
2023/02/09 21:35:11;;;;;;;18.70;9.60;;;;;;;-1.53;66.39;100415.63;221607;1278;23361;-74
2023/02/09 21:40:15;;;;;;;16.30;9.90;;;;;;;-1.53;65.87;100436.40;221625;1277;25313;-74
2023/02/09 21:45:17;;;;;;;17.00;8.90;;;;;;;-1.53;65.94;100442.42;221637;1275;22552;-73
2023/02/09 21:50:20;;;;;;;16.50;9.10;;;;;;;-1.58;66.02;100465.98;221669;1275;22525;-74
2023/02/09 21:55:22;;;;;;;16.90;8.40;;;;;;;-1.59;65.65;100478.11;221625;1275;24486;-74
2023/02/09 22:00:24;;;;;;;16.20;9.50;;;;;;;-1.58;65.98;100477.05;221689;1275;25444;-74
2023/02/09 22:05:26;;;;;;;15.10;8.70;;;;;;;-1.61;65.74;100474.20;221717;1273;25350;-73
2023/02/09 22:10:28;;;;;;;16.10;9.30;;;;;;;-1.61;65.81;100476.80;221706;1275;22735;-74
2023/02/09 22:15:39;;;;;;;19.20;9.90;;;;;;;-1.59;65.93;100472.43;221668;1277;22529;-74
2023/02/09 22:20:43;;;;;;;17.20;9.30;;;;;;;-1.63;65.82;100489.34;221707;1274;22520;-74
2023/02/09 22:25:45;;;;;;;17.20;8.30;;;;;;;-1.65;66.19;100503.96;221708;1275;22875;-74
2023/02/09 22:30:47;;;;;;;14.20;7.10;;;;;;;-1.68;66.06;100511.69;221617;1277;22694;-75
2023/02/09 22:35:50;;;;;;;16.60;8.50;;;;;;;-1.68;66.43;100517.73;221575;1275;22558;-74
2023/02/09 22:40:52;;;;;;;18.20;9.00;;;;;;;-1.67;66.30;100529.08;221529;1277;25531;-74
2023/02/09 22:45:55;;;;;;;16.20;9.50;;;;;;;-1.69;66.48;100523.33;221496;1275;25497;-74
2023/02/09 22:50:57;;;;;;;19.10;11.10;;;;;;;-1.74;66.69;100520.25;221568;1275;22561;-73
2023/02/09 22:56:03;;;;;;;17.60;10.50;;;;;;;-1.80;66.73;100514.82;221612;1275;23291;-73
2023/02/09 23:01:06;;;;;;;18.10;9.40;;;;;;;-1.86;67.06;100504.17;221601;1275;22537;-74
2023/02/09 23:06:13;;;;;;;15.70;9.50;;;;;;;-1.90;67.21;100512.48;221625;1275;22592;-74
2023/02/09 23:11:16;;;;;;;21.90;11.30;;;;;;;-1.94;67.49;100519.41;221755;1276;24262;-74
2023/02/09 23:16:21;;;;;;;19.20;11.20;;;;;;;-1.98;67.66;100521.48;221572;1259;23979;-74
2023/02/09 23:21:27;;;;;;;20.10;11.70;;;;;;;-2.03;67.75;100527.55;221614;1278;22659;-74
2023/02/09 23:26:29;;;;;;;20.30;12.40;;;;;;;-2.08;67.98;100523.83;221703;1275;26629;-73